Time;durP1;ratioP1;P1;durP2;ratioP2;P2;SDS_P1;SDS_P2;PMS_P1;PMS_P2;Temp;Humidity;BMP_temperature;BMP_pressure;BME280_temperature;BME280_humidity;BME280_pressure;Samples;Min_cycle;Max_cycle;Signal;HPM_P1;HPM_P2
2023/10/07 00:00:24;;;;;;;17.25;16.60;;;10.50;99.90;;;;;;5120798;27;20201;-67
2023/10/07 00:02:52;;;;;;;18.73;18.02;;;10.50;99.90;;;;;;5109130;28;20325;-68
2023/10/07 00:05:26;;;;;;;16.70;16.10;;;10.60;99.90;;;;;;5120229;27;20535;-69
2023/10/07 00:07:55;;;;;;;19.70;18.95;;;10.60;99.90;;;;;;5117115;27;20197;-69
2023/10/07 00:10:25;;;;;;;20.02;19.30;;;10.60;99.90;;;;;;5115055;27;20206;-69
2023/10/07 00:12:52;;;;;;;19.17;18.47;;;10.60;99.90;;;;;;5117154;27;20325;-69
2023/10/07 00:15:21;;;;;;;19.40;18.70;;;10.60;99.90;;;;;;5116645;27;20212;-69
2023/10/07 00:17:48;;;;;;;19.00;18.30;;;10.60;99.90;;;;;;5120183;27;20687;-70
2023/10/07 00:20:18;;;;;;;18.45;17.77;;;10.60;99.90;;;;;;5128290;27;20581;-70
2023/10/07 00:22:49;;;;;;;19.83;19.03;;;10.60;99.90;;;;;;5119331;27;20837;-70
2023/10/07 00:25:19;;;;;;;17.63;16.93;;;10.60;99.90;;;;;;5123212;28;20213;-68
2023/10/07 00:27:48;;;;;;;17.83;17.23;;;10.70;99.90;;;;;;5110099;28;20603;-68
2023/10/07 00:30:16;;;;;;;18.33;17.63;;;10.60;99.90;;;;;;5120026;28;20209;-69
2023/10/07 00:32:45;;;;;;;20.40;19.70;;;10.60;99.90;;;;;;5130099;28;20332;-69
2023/10/07 00:35:14;;;;;;;17.33;16.73;;;10.50;99.90;;;;;;5127922;28;20205;-68
2023/10/07 00:37:44;;;;;;;17.03;16.43;;;10.50;99.90;;;;;;5117054;28;20761;-68
2023/10/07 00:40:24;;;;;;;16.80;16.20;;;10.40;99.90;;;;;;5124589;28;20235;-68
2023/10/07 00:42:52;;;;;;;15.30;14.73;;;10.40;99.90;;;;;;5101627;28;20317;-68
2023/10/07 00:45:20;;;;;;;23.00;22.13;;;10.40;99.90;;;;;;5123884;28;20233;-70
2023/10/07 00:47:49;;;;;;;16.60;16.00;;;10.40;99.90;;;;;;5127345;28;20213;-68
2023/10/07 00:50:17;;;;;;;15.65;15.05;;;10.40;99.90;;;;;;5126461;28;20907;-67
2023/10/07 00:52:55;;;;;;;15.43;14.83;;;10.30;99.90;;;;;;5108091;28;20338;-68
2023/10/07 00:55:28;;;;;;;16.77;16.17;;;10.20;99.90;;;;;;5115972;28;20213;-69
2023/10/07 00:58:06;;;;;;;14.90;14.40;;;10.10;99.90;;;;;;5117943;28;20215;-68
2023/10/07 01:00:49;;;;;;;15.47;14.87;;;10.10;99.90;;;;;;5111413;28;20209;-70
2023/10/07 01:03:32;;;;;;;14.87;14.37;;;10.10;99.90;;;;;;5105646;28;20360;-69
2023/10/07 01:06:12;;;;;;;16.43;15.63;;;10.20;99.90;;;;;;5112746;28;20205;-69
2023/10/07 01:08:47;;;;;;;17.57;16.97;;;10.20;99.90;;;;;;5121876;28;20306;-70
2023/10/07 01:11:23;;;;;;;15.93;15.33;;;10.20;99.90;;;;;;5120748;28;20224;-69
2023/10/07 01:13:51;;;;;;;17.57;16.97;;;10.30;99.90;;;;;;5113488;27;20221;-68
2023/10/07 01:16:41;;;;;;;15.93;15.33;;;10.30;99.90;;;;;;5123750;27;20274;-69
2023/10/07 01:19:19;;;;;;;17.37;16.77;;;10.30;99.90;;;;;;5119834;27;20210;-71
2023/10/07 01:21:51;;;;;;;16.00;15.40;;;10.30;99.90;;;;;;5112555;27;20993;-70
2023/10/07 01:24:33;;;;;;;15.63;15.03;;;10.30;99.90;;;;;;5125577;27;20824;-70
2023/10/07 01:27:07;;;;;;;17.10;16.40;;;10.30;99.90;;;;;;5111661;27;20289;-69
2023/10/07 01:29:35;;;;;;;14.95;14.43;;;10.20;99.90;;;;;;5104934;28;20210;-68
2023/10/07 01:32:11;;;;;;;14.57;14.07;;;10.30;99.90;;;;;;5113531;28;20809;-68
2023/10/07 01:34:38;;;;;;;16.50;15.90;;;10.30;99.90;;;;;;5109668;28;20586;-69
2023/10/07 01:37:07;;;;;;;16.27;15.67;;;10.30;99.90;;;;;;5109203;28;20210;-68
2023/10/07 01:39:41;;;;;;;16.73;16.13;;;10.30;99.90;;;;;;5104761;28;20213;-69
2023/10/07 01:42:12;;;;;;;16.20;15.60;;;10.40;99.90;;;;;;5106551;28;20595;-69
2023/10/07 01:44:41;;;;;;;18.33;17.63;;;10.40;99.90;;;;;;5111755;28;20247;-68
2023/10/07 01:47:17;;;;;;;15.00;14.50;;;10.40;99.90;;;;;;5113288;28;20255;-68
2023/10/07 01:49:44;;;;;;;15.83;15.23;;;10.40;99.90;;;;;;5101375;28;20202;-68
2023/10/07 01:52:11;;;;;;;16.27;15.67;;;10.40;99.90;;;;;;5108239;28;20229;-70
2023/10/07 01:54:42;;;;;;;15.97;15.37;;;10.40;99.90;;;;;;5111442;28;20325;-69
2023/10/07 01:57:09;;;;;;;16.20;15.60;;;10.40;99.90;;;;;;5111466;28;20297;-69
2023/10/07 01:59:37;;;;;;;16.70;16.10;;;10.30;99.90;;;;;;5111661;28;21056;-69
2023/10/07 02:02:06;;;;;;;17.80;17.08;;;10.30;99.90;;;;;;5112645;28;20248;-69
2023/10/07 02:04:33;;;;;;;16.83;16.23;;;10.30;99.90;;;;;;5109393;28;20286;-68
2023/10/07 02:07:00;;;;;;;15.47;14.87;;;10.20;99.90;;;;;;5108306;28;20300;-69
2023/10/07 02:09:29;;;;;;;16.43;15.83;;;10.20;99.90;;;;;;5110925;28;20245;-70
2023/10/07 02:12:00;;;;;;;16.80;16.17;;;10.20;99.90;;;;;;5105920;28;20202;-69
2023/10/07 02:14:28;;;;;;;16.38;15.77;;;10.20;99.90;;;;;;5109311;28;20229;-70
2023/10/07 02:16:57;;;;;;;16.27;15.67;;;10.20;99.90;;;;;;5107992;28;20234;-68
2023/10/07 02:19:31;;;;;;;15.10;14.53;;;10.20;99.90;;;;;;5111898;28;20637;-69
2023/10/07 02:22:03;;;;;;;16.10;15.50;;;10.10;99.90;;;;;;5100279;28;20240;-69
2023/10/07 02:24:31;;;;;;;17.13;16.53;;;10.10;99.90;;;;;;5105972;28;20263;-70
2023/10/07 02:27:03;;;;;;;15.83;15.23;;;10.10;99.90;;;;;;5111683;28;20236;-69
2023/10/07 02:29:30;;;;;;;16.13;15.53;;;10.00;99.90;;;;;;5109259;28;20309;-68
2023/10/07 02:32:11;;;;;;;17.40;16.80;;;9.90;99.90;;;;;;5105552;28;20221;-70
2023/10/07 02:34:51;;;;;;;16.07;15.47;;;9.90;99.90;;;;;;5112747;28;20209;-68
2023/10/07 02:37:18;;;;;;;17.13;16.47;;;9.90;99.90;;;;;;5112393;28;20205;-69
2023/10/07 02:39:48;;;;;;;17.40;16.67;;;9.80;99.90;;;;;;5110690;28;20213;-70
2023/10/07 02:42:21;;;;;;;16.83;16.23;;;9.90;99.90;;;;;;5111858;28;20226;-69
2023/10/07 02:44:54;;;;;;;15.50;14.90;;;9.90;99.90;;;;;;5099119;28;20221;-67
2023/10/07 02:47:21;;;;;;;16.37;15.77;;;9.90;99.90;;;;;;5112068;28;20221;-70
2023/10/07 02:49:50;;;;;;;15.87;15.27;;;10.00;99.90;;;;;;5110666;28;20217;-67
2023/10/07 02:52:20;;;;;;;15.73;15.13;;;10.00;99.90;;;;;;5112242;28;20777;-68
2023/10/07 02:55:11;;;;;;;15.93;15.33;;;10.00;99.90;;;;;;5097163;28;20301;-67
2023/10/07 02:57:40;;;;;;;15.77;15.17;;;10.10;99.90;;;;;;5105350;28;20221;-69
2023/10/07 03:00:16;;;;;;;16.47;15.87;;;10.10;99.90;;;;;;5109773;28;20643;-68
2023/10/07 03:02:49;;;;;;;15.27;14.68;;;10.10;99.90;;;;;;5106178;28;20613;-70
2023/10/07 03:05:27;;;;;;;15.48;14.88;;;10.10;99.90;;;;;;5112081;28;20723;-69
2023/10/07 03:08:02;;;;;;;15.03;14.53;;;10.10;99.90;;;;;;5108850;28;20233;-67
2023/10/07 03:10:43;;;;;;;15.53;14.93;;;10.10;99.90;;;;;;5112522;28;20209;-68
2023/10/07 03:13:15;;;;;;;15.43;14.83;;;10.10;99.90;;;;;;5111896;28;20230;-67
2023/10/07 03:15:46;;;;;;;15.75;15.15;;;10.10;99.90;;;;;;5111614;28;20236;-69
2023/10/07 03:18:21;;;;;;;16.10;15.50;;;10.10;99.90;;;;;;5111627;28;20304;-69
2023/10/07 03:21:00;;;;;;;15.40;14.80;;;10.10;99.90;;;;;;5098090;28;20231;-69
2023/10/07 03:23:32;;;;;;;15.73;15.13;;;10.10;99.90;;;;;;5111451;28;20244;-70
2023/10/07 03:26:06;;;;;;;15.53;14.97;;;10.00;99.90;;;;;;5111502;28;20628;-70
2023/10/07 03:28:35;;;;;;;15.70;15.13;;;10.00;99.90;;;;;;5108056;28;20214;-68
2023/10/07 03:31:08;;;;;;;15.60;15.03;;;10.00;99.90;;;;;;5105676;28;20302;-69
2023/10/07 03:33:45;;;;;;;14.13;13.63;;;10.00;99.90;;;;;;5109908;28;20305;-68
2023/10/07 03:36:30;;;;;;;14.98;14.43;;;10.00;99.90;;;;;;5111049;28;20694;-70
2023/10/07 03:39:11;;;;;;;15.30;14.75;;;10.00;99.90;;;;;;5119758;27;20708;-69
2023/10/07 03:41:41;;;;;;;14.80;14.30;;;10.00;99.90;;;;;;5128885;27;20840;-68
2023/10/07 03:44:09;;;;;;;15.43;14.90;;;10.00;99.90;;;;;;5123036;27;20264;-70
2023/10/07 03:46:36;;;;;;;16.00;15.40;;;10.00;99.90;;;;;;5123476;27;20205;-70
2023/10/07 03:49:06;;;;;;;15.48;14.88;;;10.00;99.90;;;;;;5118244;27;20234;-69
2023/10/07 03:51:35;;;;;;;16.70;16.10;;;10.00;99.90;;;;;;5119829;27;20209;-70
2023/10/07 03:54:04;;;;;;;17.47;16.83;;;10.00;99.90;;;;;;5131316;27;20720;-69
2023/10/07 03:56:31;;;;;;;18.97;18.27;;;9.80;99.90;;;;;;5124684;27;20205;-67
2023/10/07 03:58:59;;;;;;;19.60;18.90;;;9.80;99.90;;;;;;5131287;27;20224;-69
2023/10/07 04:01:28;;;;;;;17.90;17.20;;;9.70;99.90;;;;;;5117485;27;20217;-69
2023/10/07 04:03:59;;;;;;;17.03;16.40;;;9.60;99.90;;;;;;5112597;27;20237;-68
2023/10/07 04:06:30;;;;;;;17.40;16.80;;;9.50;99.90;;;;;;5122369;27;20506;-70
2023/10/07 04:09:07;;;;;;;16.83;16.23;;;9.50;99.90;;;;;;5122477;27;20505;-70
2023/10/07 04:11:36;;;;;;;16.30;15.70;;;9.50;99.90;;;;;;5114416;27;20213;-69
2023/10/07 04:14:07;;;;;;;16.90;16.30;;;9.50;99.90;;;;;;5129294;27;20955;-69
2023/10/07 04:16:36;;;;;;;18.53;17.83;;;9.40;99.90;;;;;;5122812;27;20214;-68
2023/10/07 04:19:30;;;;;;;17.43;16.83;;;9.40;99.90;;;;;;5130804;27;20244;-70
2023/10/07 04:21:57;;;;;;;18.50;17.83;;;9.40;99.90;;;;;;5113573;27;20212;-67
2023/10/07 04:24:28;;;;;;;19.33;18.63;;;9.40;99.90;;;;;;5119080;27;20320;-67
2023/10/07 04:27:03;;;;;;;20.50;19.77;;;9.40;99.90;;;;;;5124319;28;20588;-68
2023/10/07 04:29:30;;;;;;;19.53;18.83;;;9.40;99.90;;;;;;5115527;28;20215;-70
2023/10/07 04:32:05;;;;;;;19.33;18.63;;;9.40;99.90;;;;;;5123943;28;20205;-67
2023/10/07 04:34:46;;;;;;;20.90;20.17;;;9.40;99.90;;;;;;5129975;28;20200;-69
2023/10/07 04:37:16;;;;;;;19.13;18.43;;;9.40;99.90;;;;;;5129494;28;20209;-68
2023/10/07 04:42:38;;;;;;;19.97;19.27;;;9.50;99.90;;;;;;5100497;28;20217;-68
2023/10/07 04:45:22;;;;;;;19.27;18.57;;;9.40;99.90;;;;;;5139786;28;20217;-68
2023/10/07 04:47:57;;;;;;;18.90;18.20;;;9.40;99.90;;;;;;5119187;27;20219;-69
2023/10/07 04:50:33;;;;;;;20.63;19.83;;;9.50;99.90;;;;;;5142106;27;20220;-68
2023/10/07 04:53:03;;;;;;;19.70;18.97;;;9.60;99.90;;;;;;5144869;27;20248;-68
2023/10/07 04:55:29;;;;;;;19.23;18.53;;;9.60;99.90;;;;;;5145347;27;20212;-68
2023/10/07 04:57:58;;;;;;;19.27;18.57;;;9.60;99.90;;;;;;5144734;27;20307;-69
2023/10/07 05:00:34;;;;;;;20.65;19.88;;;9.60;99.90;;;;;;5136221;27;20243;-68
2023/10/07 05:03:08;;;;;;;18.83;18.13;;;9.70;99.90;;;;;;5128474;27;20621;-68
2023/10/07 05:05:35;;;;;;;18.20;17.50;;;9.70;99.90;;;;;;5135229;27;20225;-68
2023/10/07 05:08:08;;;;;;;18.50;17.80;;;9.70;99.90;;;;;;5134858;27;20296;-68
2023/10/07 05:10:38;;;;;;;20.13;19.40;;;9.60;99.90;;;;;;5135363;27;20234;-67
2023/10/07 05:13:06;;;;;;;19.52;18.73;;;9.60;99.90;;;;;;5134414;27;20678;-68
2023/10/07 05:15:33;;;;;;;17.00;16.40;;;9.60;99.90;;;;;;5134228;27;20209;-67
2023/10/07 05:18:01;;;;;;;18.00;17.30;;;9.60;99.90;;;;;;5134249;27;20614;-68
2023/10/07 05:20:32;;;;;;;18.60;17.90;;;9.60;99.90;;;;;;5134325;27;20205;-67
2023/10/07 05:23:03;;;;;;;18.43;17.73;;;9.50;99.90;;;;;;5134798;27;20253;-66
2023/10/07 05:25:30;;;;;;;15.90;15.30;;;9.40;99.90;;;;;;5134716;27;20613;-68
2023/10/07 05:27:57;;;;;;;20.30;19.60;;;9.40;99.90;;;;;;5134075;27;20592;-68
2023/10/07 05:30:24;;;;;;;18.17;17.47;;;9.40;99.90;;;;;;5134034;27;20554;-68
2023/10/07 05:32:52;;;;;;;16.65;16.05;;;9.40;99.90;;;;;;5129807;27;20232;-68
2023/10/07 05:35:19;;;;;;;17.20;16.60;;;9.40;99.90;;;;;;5128267;27;20213;-68
2023/10/07 05:37:47;;;;;;;19.20;18.50;;;9.40;99.90;;;;;;5134707;27;20205;-67
2023/10/07 05:40:15;;;;;;;16.53;15.93;;;9.30;99.90;;;;;;5134178;27;20531;-68
2023/10/07 05:42:43;;;;;;;17.07;16.47;;;9.30;99.90;;;;;;5134568;27;20309;-67
2023/10/07 05:45:11;;;;;;;16.50;15.90;;;9.30;99.90;;;;;;5133880;27;20224;-68
2023/10/07 05:47:37;;;;;;;16.43;15.80;;;9.20;99.90;;;;;;5132509;27;20243;-65
2023/10/07 05:50:05;;;;;;;17.48;16.77;;;9.20;99.90;;;;;;5120499;27;20293;-68
2023/10/07 05:52:33;;;;;;;16.00;15.40;;;9.20;99.90;;;;;;5134424;27;20275;-68
2023/10/07 05:55:03;;;;;;;18.10;17.40;;;9.20;99.90;;;;;;5130289;27;20227;-68
2023/10/07 05:57:29;;;;;;;17.97;17.27;;;9.40;99.90;;;;;;5136921;27;20205;-68
2023/10/07 05:59:58;;;;;;;17.77;17.07;;;9.20;99.90;;;;;;5130543;27;20220;-68
2023/10/07 06:02:26;;;;;;;18.63;17.93;;;9.30;99.90;;;;;;5142162;27;20233;-68
2023/10/07 06:04:53;;;;;;;17.70;17.10;;;9.30;99.90;;;;;;5139913;27;20277;-68
2023/10/07 06:07:21;;;;;;;18.33;17.63;;;9.30;99.90;;;;;;5145760;27;20300;-68
2023/10/07 06:09:48;;;;;;;17.53;16.93;;;9.40;99.90;;;;;;5142050;27;20213;-67
2023/10/07 06:12:18;;;;;;;17.73;17.13;;;9.40;99.90;;;;;;5133950;27;20606;-68
2023/10/07 06:14:44;;;;;;;20.20;19.50;;;9.50;99.90;;;;;;5134171;27;20205;-69
2023/10/07 06:17:11;;;;;;;18.60;17.90;;;9.60;99.90;;;;;;5136362;27;20288;-68
2023/10/07 06:19:40;;;;;;;18.37;17.67;;;9.60;99.90;;;;;;5133585;27;20559;-69
2023/10/07 06:22:12;;;;;;;17.77;17.17;;;9.60;99.90;;;;;;5133558;27;20221;-68
2023/10/07 06:24:40;;;;;;;17.10;16.50;;;9.60;99.90;;;;;;5132246;27;20205;-68
2023/10/07 06:27:11;;;;;;;16.08;15.48;;;9.70;99.90;;;;;;5134413;27;20282;-67
2023/10/07 06:29:43;;;;;;;16.83;16.13;;;9.70;99.90;;;;;;5134302;27;20255;-69
2023/10/07 06:32:41;;;;;;;16.77;16.17;;;9.70;99.90;;;;;;5133752;27;20267;-69
2023/10/07 06:35:13;;;;;;;18.00;17.30;;;9.80;99.90;;;;;;5132945;27;20197;-68
2023/10/07 06:37:40;;;;;;;16.17;15.57;;;9.90;99.90;;;;;;5130797;27;20205;-68
2023/10/07 06:40:28;;;;;;;15.70;15.10;;;10.00;99.90;;;;;;5134348;27;20229;-68
2023/10/07 06:42:58;;;;;;;15.93;15.32;;;10.00;99.90;;;;;;5123081;27;20229;-68
2023/10/07 06:45:35;;;;;;;16.37;15.77;;;10.10;99.90;;;;;;5133352;27;20598;-69
2023/10/07 06:48:05;;;;;;;15.80;15.20;;;10.20;99.90;;;;;;5133412;27;20235;-68
2023/10/07 06:50:32;;;;;;;15.60;15.00;;;10.30;99.90;;;;;;5133249;27;20236;-69
2023/10/07 06:52:59;;;;;;;16.45;15.85;;;10.40;99.90;;;;;;5128056;27;20226;-69
2023/10/07 06:55:28;;;;;;;16.45;15.85;;;10.50;99.90;;;;;;5132058;27;20216;-69
2023/10/07 06:57:56;;;;;;;17.08;16.48;;;10.60;99.90;;;;;;5133176;27;20630;-69
2023/10/07 07:00:27;;;;;;;17.45;16.77;;;10.70;99.90;;;;;;5131965;27;20732;-69
2023/10/07 07:02:57;;;;;;;17.08;16.48;;;10.70;99.90;;;;;;5131197;27;20235;-69
2023/10/07 07:05:25;;;;;;;17.73;17.03;;;10.80;99.90;;;;;;5132900;27;20256;-69
2023/10/07 07:07:53;;;;;;;18.30;17.60;;;10.90;99.90;;;;;;5132451;27;20649;-69
2023/10/07 07:10:27;;;;;;;19.73;19.02;;;11.00;99.90;;;;;;5132696;27;20691;-69
2023/10/07 07:12:58;;;;;;;19.55;18.85;;;11.00;99.90;;;;;;5132908;27;20337;-69
2023/10/07 07:15:28;;;;;;;19.45;18.75;;;11.10;99.90;;;;;;5133691;27;20659;-70
2023/10/07 07:18:08;;;;;;;20.43;19.43;;;11.10;99.90;;;;;;5133582;27;20201;-68
2023/10/07 07:23:17;;;;;;;19.83;19.13;;;11.10;99.90;;;;;;5133835;27;20236;-68
2023/10/07 07:25:50;;;;;;;20.38;19.67;;;11.20;99.90;;;;;;5131156;27;20221;-69
2023/10/07 07:28:18;;;;;;;19.90;19.20;;;11.30;99.90;;;;;;5132527;27;20213;-68
2023/10/07 07:30:45;;;;;;;19.00;18.30;;;11.50;99.90;;;;;;5132973;27;20213;-69
2023/10/07 07:33:15;;;;;;;18.17;17.48;;;11.60;99.90;;;;;;5132666;27;20340;-69
2023/10/07 07:35:44;;;;;;;18.77;18.07;;;11.80;99.90;;;;;;5133164;27;20274;-68
2023/10/07 07:38:29;;;;;;;16.50;15.90;;;11.90;99.90;;;;;;5130548;27;20232;-70
2023/10/07 07:41:09;;;;;;;17.05;16.45;;;12.00;99.90;;;;;;5131149;27;20296;-69
2023/10/07 07:43:37;;;;;;;16.42;15.82;;;12.20;99.90;;;;;;5131196;27;20299;-69
2023/10/07 07:46:17;;;;;;;18.63;17.93;;;12.20;99.90;;;;;;5126036;27;20225;-70
2023/10/07 07:48:46;;;;;;;18.23;17.63;;;12.30;99.90;;;;;;5132325;27;20277;-68
2023/10/07 07:51:16;;;;;;;16.33;15.77;;;12.40;99.90;;;;;;5124492;27;20240;-68
2023/10/07 07:53:44;;;;;;;17.37;16.67;;;12.50;99.90;;;;;;5132266;27;20669;-67
2023/10/07 07:56:12;;;;;;;15.87;15.27;;;12.70;99.90;;;;;;5125685;27;20636;-67
2023/10/07 07:58:41;;;;;;;18.27;17.60;;;12.90;99.90;;;;;;5131995;27;20209;-68
2023/10/07 08:01:15;;;;;;;18.03;17.33;;;13.00;99.90;;;;;;5125269;27;20618;-69
2023/10/07 08:03:42;;;;;;;15.97;15.37;;;13.20;99.90;;;;;;5125559;27;20592;-68
2023/10/07 08:06:19;;;;;;;16.42;15.82;;;13.50;99.90;;;;;;5126279;27;20221;-69
2023/10/07 08:08:46;;;;;;;14.20;13.70;;;13.70;99.90;;;;;;5129457;27;20213;-69
2023/10/07 08:11:14;;;;;;;12.43;12.03;;;13.80;99.90;;;;;;5128778;27;20205;-68
2023/10/07 08:13:41;;;;;;;13.27;12.77;;;14.00;99.90;;;;;;5125030;27;20260;-69
2023/10/07 08:16:15;;;;;;;12.47;12.03;;;14.20;99.90;;;;;;5130842;27;20572;-68
2023/10/07 08:18:42;;;;;;;12.43;12.00;;;14.40;99.90;;;;;;5131845;27;20209;-69
2023/10/07 08:21:13;;;;;;;13.03;12.53;;;14.60;99.90;;;;;;5131049;27;20211;-69
2023/10/07 08:23:44;;;;;;;12.93;12.43;;;14.70;99.90;;;;;;5131170;27;20635;-68
2023/10/07 08:26:12;;;;;;;13.90;13.30;;;15.00;99.90;;;;;;5131840;27;20221;-69
2023/10/07 08:28:42;;;;;;;13.50;13.00;;;15.20;99.90;;;;;;5132238;27;20232;-69
2023/10/07 08:31:18;;;;;;;13.23;12.73;;;15.50;99.90;;;;;;5126077;28;20308;-67
2023/10/07 08:33:53;;;;;;;13.68;13.18;;;15.60;99.90;;;;;;5118781;28;20229;-68
2023/10/07 08:36:29;;;;;;;14.07;13.57;;;15.70;99.90;;;;;;5132393;28;20299;-68
2023/10/07 08:38:59;;;;;;;13.17;12.67;;;15.70;99.90;;;;;;5119641;28;20216;-67
2023/10/07 08:41:28;;;;;;;13.35;12.85;;;15.70;99.90;;;;;;5124125;28;20208;-67
2023/10/07 08:44:13;;;;;;;13.52;13.02;;;15.70;99.90;;;;;;5124806;28;20229;-67
2023/10/07 08:46:40;;;;;;;12.77;12.27;;;15.80;99.90;;;;;;5131778;28;20225;-67
2023/10/07 08:49:13;;;;;;;13.25;12.75;;;15.80;99.90;;;;;;5132096;28;20640;-68
2023/10/07 08:51:42;;;;;;;13.27;12.77;;;15.80;99.90;;;;;;5132402;28;20223;-67
2023/10/07 08:54:18;;;;;;;13.57;13.07;;;15.80;99.90;;;;;;5132237;28;20729;-69
2023/10/07 08:56:54;;;;;;;14.07;13.57;;;15.70;99.90;;;;;;5118429;28;20225;-69
2023/10/07 08:59:24;;;;;;;13.40;12.90;;;15.70;99.90;;;;;;5125313;28;20291;-68
2023/10/07 09:01:57;;;;;;;14.30;13.80;;;15.60;99.90;;;;;;5119722;28;20317;-67
2023/10/07 09:04:25;;;;;;;14.17;13.63;;;15.80;99.90;;;;;;5131541;28;20257;-67
2023/10/07 09:06:52;;;;;;;13.77;13.27;;;15.90;99.90;;;;;;5132595;28;20225;-66
2023/10/07 09:09:38;;;;;;;13.95;13.45;;;16.00;99.90;;;;;;5131453;28;20216;-66
2023/10/07 09:12:11;;;;;;;13.50;13.00;;;16.40;99.90;;;;;;5132295;28;20809;-67
2023/10/07 09:14:45;;;;;;;13.55;13.05;;;16.40;99.90;;;;;;5132099;28;20679;-68
2023/10/07 09:17:11;;;;;;;13.65;13.15;;;16.50;99.90;;;;;;5132075;28;20213;-67
2023/10/07 09:19:43;;;;;;;13.83;13.33;;;16.70;99.90;;;;;;5131016;28;20234;-67
2023/10/07 09:22:11;;;;;;;13.60;13.10;;;17.00;99.90;;;;;;5124566;28;20558;-68
2023/10/07 09:24:44;;;;;;;14.18;13.68;;;17.40;99.90;;;;;;5118340;28;20211;-67
2023/10/07 09:27:13;;;;;;;13.60;13.10;;;17.60;99.90;;;;;;5127793;28;20229;-66
2023/10/07 09:29:44;;;;;;;13.95;13.45;;;17.70;99.90;;;;;;5127202;28;20220;-69
2023/10/07 09:32:17;;;;;;;14.23;13.73;;;17.80;99.90;;;;;;5145490;28;20392;-69
2023/10/07 09:34:45;;;;;;;14.05;13.55;;;18.10;99.90;;;;;;5147382;27;20278;-67
2023/10/07 09:37:13;;;;;;;14.33;13.83;;;18.40;99.90;;;;;;5152053;27;20210;-69
2023/10/07 09:39:53;;;;;;;13.40;12.90;;;18.70;99.90;;;;;;5144144;27;20672;-68
2023/10/07 09:42:27;;;;;;;13.45;12.95;;;18.90;99.90;;;;;;5141804;27;20386;-68
2023/10/07 09:45:00;;;;;;;14.00;13.50;;;19.10;99.90;;;;;;5131533;27;20258;-70
2023/10/07 09:47:28;;;;;;;13.17;12.67;;;19.10;99.90;;;;;;5146679;27;20232;-70
2023/10/07 09:49:58;;;;;;;13.80;13.25;;;19.10;99.90;;;;;;5140924;27;20645;-70
2023/10/07 09:52:32;;;;;;;14.30;13.80;;;19.10;99.90;;;;;;5138789;27;20225;-69
2023/10/07 09:55:20;;;;;;;14.45;13.95;;;19.40;99.90;;;;;;5150349;27;20213;-68
2023/10/07 09:58:00;;;;;;;14.90;14.40;;;19.50;99.90;;;;;;5147947;27;20221;-69
2023/10/07 10:00:40;;;;;;;16.02;15.43;;;19.60;99.90;;;;;;5125997;27;20209;-69
2023/10/07 10:03:47;;;;;;;15.43;14.93;;;19.50;99.90;;;;;;5129107;27;20233;-70
2023/10/07 10:06:26;;;;;;;15.15;14.65;;;19.60;99.90;;;;;;5122114;27;20282;-67
2023/10/07 10:08:57;;;;;;;15.88;15.27;;;19.50;99.90;;;;;;5135641;27;20205;-68
2023/10/07 10:11:44;;;;;;;16.93;16.33;;;19.60;99.90;;;;;;5134410;27;20236;-67
2023/10/07 10:14:29;;;;;;;16.90;16.30;;;19.80;99.90;;;;;;5126716;27;20267;-70
2023/10/07 10:16:59;;;;;;;15.10;14.50;;;20.00;99.90;;;;;;5124074;27;20208;-68
2023/10/07 10:19:28;;;;;;;15.15;14.65;;;20.30;99.90;;;;;;5134102;27;20575;-69
2023/10/07 10:21:55;;;;;;;14.88;14.32;;;20.40;99.90;;;;;;5128685;27;20240;-70
2023/10/07 10:24:29;;;;;;;16.63;16.02;;;20.40;99.90;;;;;;5133113;27;20291;-68
2023/10/07 10:27:09;;;;;;;15.25;14.65;;;20.40;99.90;;;;;;5134866;27;20225;-69
2023/10/07 10:29:51;;;;;;;14.98;14.48;;;20.50;99.90;;;;;;5133328;27;20220;-70
2023/10/07 10:32:28;;;;;;;13.73;13.13;;;20.60;99.90;;;;;;5135448;27;20670;-69
2023/10/07 10:34:55;;;;;;;14.68;14.18;;;20.60;99.90;;;;;;5124430;27;20209;-69
2023/10/07 10:37:26;;;;;;;14.23;13.73;;;20.60;99.90;;;;;;5134887;27;20300;-69
2023/10/07 10:39:53;;;;;;;13.80;13.30;;;20.80;99.90;;;;;;5134541;27;20205;-69
2023/10/07 10:42:22;;;;;;;14.55;13.95;;;20.90;99.90;;;;;;5132498;27;20225;-69
2023/10/07 10:44:49;;;;;;;14.65;14.15;;;20.90;99.90;;;;;;5133959;27;20209;-68
2023/10/07 10:47:18;;;;;;;15.20;14.70;;;20.90;99.90;;;;;;5132905;27;20308;-70
2023/10/07 10:49:45;;;;;;;14.45;13.95;;;21.00;99.90;;;;;;5134026;27;20346;-67
2023/10/07 10:52:13;;;;;;;14.40;13.80;;;20.90;99.90;;;;;;5131527;27;20221;-68
2023/10/07 10:54:40;;;;;;;15.50;14.80;;;20.90;99.90;;;;;;5129689;27;20215;-69
2023/10/07 10:57:08;;;;;;;14.30;13.80;;;20.80;99.90;;;;;;5130756;27;20208;-70
2023/10/07 10:59:42;;;;;;;14.52;14.02;;;20.80;99.90;;;;;;5133561;27;20212;-70
2023/10/07 11:02:11;;;;;;;14.57;14.07;;;20.80;99.90;;;;;;5132137;27;20327;-69
2023/10/07 11:04:37;;;;;;;14.23;13.73;;;21.00;99.90;;;;;;5126552;27;20210;-69
2023/10/07 11:07:07;;;;;;;14.20;13.70;;;21.20;99.90;;;;;;5133461;27;20224;-68
2023/10/07 11:09:37;;;;;;;14.50;14.00;;;21.40;99.90;;;;;;5133290;27;20220;-68
2023/10/07 11:12:09;;;;;;;15.68;15.07;;;21.60;99.90;;;;;;5132799;27;20661;-70
2023/10/07 11:14:38;;;;;;;14.48;13.98;;;21.80;99.90;;;;;;5132812;27;20290;-71
2023/10/07 11:17:08;;;;;;;14.95;14.40;;;22.10;99.90;;;;;;5126981;27;20270;-70
2023/10/07 11:19:40;;;;;;;14.25;13.75;;;22.20;99.90;;;;;;5131740;27;20212;-71
2023/10/07 11:22:08;;;;;;;15.20;14.70;;;22.10;99.90;;;;;;5126632;27;20210;-70
2023/10/07 11:24:37;;;;;;;16.42;15.82;;;22.00;99.90;;;;;;5118783;27;20216;-70
2023/10/07 11:27:04;;;;;;;16.60;16.00;;;22.00;99.90;;;;;;5133227;27;20221;-68
2023/10/07 11:29:32;;;;;;;20.55;19.80;;;22.00;99.90;;;;;;5132957;27;20251;-69
2023/10/07 11:32:01;;;;;;;16.17;15.57;;;22.10;99.90;;;;;;5132917;27;20201;-71
2023/10/07 11:34:34;;;;;;;21.00;20.20;;;22.10;99.90;;;;;;5125178;27;20218;-70
2023/10/07 11:37:13;;;;;;;17.67;17.08;;;22.20;99.90;;;;;;5131066;27;20201;-70
2023/10/07 11:39:45;;;;;;;15.65;15.05;;;22.40;99.90;;;;;;5131981;27;20216;-69
2023/10/07 11:42:13;;;;;;;13.32;12.82;;;22.40;99.90;;;;;;5132030;27;20229;-70
2023/10/07 11:44:41;;;;;;;14.05;13.55;;;22.40;99.90;;;;;;5131792;27;20202;-69
2023/10/07 11:47:10;;;;;;;13.10;12.60;;;22.30;99.90;;;;;;5126630;27;20308;-69
2023/10/07 11:49:38;;;;;;;13.60;13.10;;;22.30;99.90;;;;;;5130251;27;20258;-69
2023/10/07 11:52:05;;;;;;;13.27;12.77;;;22.10;99.90;;;;;;5130891;27;20739;-70
2023/10/07 11:54:35;;;;;;;14.68;14.18;;;22.00;99.90;;;;;;5130223;27;20217;-69
2023/10/07 11:57:05;;;;;;;13.20;12.70;;;22.10;99.90;;;;;;5127673;27;20202;-71
2023/10/07 11:59:33;;;;;;;14.48;13.88;;;22.10;99.90;;;;;;5123025;27;20216;-70
2023/10/07 12:02:00;;;;;;;14.50;14.00;;;22.00;99.90;;;;;;5130161;27;20213;-69
2023/10/07 12:04:28;;;;;;;14.10;13.60;;;22.10;99.90;;;;;;5130668;27;20667;-69
2023/10/07 12:06:56;;;;;;;14.18;13.68;;;22.30;99.90;;;;;;5125320;27;20254;-69
2023/10/07 12:09:23;;;;;;;14.20;13.70;;;22.50;99.90;;;;;;5131289;27;20213;-70
2023/10/07 12:11:53;;;;;;;13.65;13.15;;;22.60;99.90;;;;;;5131684;27;20205;-68
2023/10/07 12:14:20;;;;;;;14.38;13.85;;;22.50;99.90;;;;;;5131490;27;20205;-68
2023/10/07 12:16:47;;;;;;;14.25;13.75;;;22.60;99.90;;;;;;5131325;27;20197;-70
2023/10/07 12:19:17;;;;;;;15.38;14.77;;;22.60;99.90;;;;;;5125809;27;20212;-71
2023/10/07 12:21:48;;;;;;;14.57;13.98;;;22.80;99.90;;;;;;5131514;27;20205;-70
2023/10/07 12:24:16;;;;;;;14.05;13.55;;;22.80;99.90;;;;;;5117230;27;20730;-70
2023/10/07 12:26:45;;;;;;;14.40;13.90;;;22.80;99.90;;;;;;5120872;27;20304;-70
2023/10/07 12:29:12;;;;;;;15.88;15.27;;;22.80;99.90;;;;;;5121154;27;20205;-69
2023/10/07 12:31:39;;;;;;;15.80;15.23;;;22.70;99.90;;;;;;5127740;27;20209;-69
2023/10/07 12:34:09;;;;;;;21.73;20.92;;;22.80;99.90;;;;;;5125893;27;20745;-69
2023/10/07 12:36:38;;;;;;;17.60;16.90;;;23.00;99.90;;;;;;5124728;27;20282;-69
2023/10/07 12:39:10;;;;;;;16.50;15.90;;;23.00;99.90;;;;;;5131192;28;20270;-68
2023/10/07 12:41:38;;;;;;;37.22;35.47;;;23.10;99.90;;;;;;5131065;28;20257;-68
2023/10/07 12:44:08;;;;;;;22.55;21.65;;;23.10;99.90;;;;;;5131007;28;20232;-68
2023/10/07 12:46:36;;;;;;;17.73;17.02;;;23.20;99.90;;;;;;5131342;28;20671;-69
2023/10/07 12:49:05;;;;;;;14.88;14.38;;;23.20;99.90;;;;;;5131398;28;20638;-69
2023/10/07 12:51:32;;;;;;;14.95;14.45;;;23.20;99.90;;;;;;5131206;28;20278;-68
2023/10/07 12:54:00;;;;;;;14.60;14.10;;;23.30;99.90;;;;;;5130089;28;20229;-68